KAEJ

Central Colorado Regional Airport

Buena Vista, Colorado, USA
METAR KAEJ 191955Z AUTO 21018G28KT 10SM CLR 27/M12 A3011 RMK AO2 T02671119
Observed Flight Rules
Jun-19 @ 19:55 UTC (18 minutes ago) Visual Flight Rules
Wind Visibility Clouds
210° at 18 knots
 Gusting to 28 knots
10 miles
  • Clear skies
Temperatures Readings
Current 27°C / 81°F
Dewpoint -12°C / 10°F
Humidity 7%
Altimeter 30.11" Hg
Pressure 1020 hPa
Elevation 2422
METAR KAEJ 191955Z AUTO 21018G28KT 10SM CLR 27/M12 A3011 RMK AO2 T02671119
Observed Flight Rules
Jun-19 @ 19:55 UTC
(18 minutes ago)
VFR
Wind Visibility
210° at 18 knots
 Gusting to 28 knots
10 miles
Clouds
  • Clear skies
Temperature Dewpoint
27°C / 81°F -12°C / 10°F
Humidity Altimeter Pressure
7% 30.11" Hg 1020 hPa